Grub im Wienerwald
Wetterdaten: aktuell Mittwoch, 27.05.2020 17:51
Datum Zeit Temp. A. Feuchte A. Luftdruck Regen Wind Richtung Richtung Sonnenschein UV Solar Taupunkt Windchill Windben
27.05.2020 17:51 18,3 C 49 % 1027,4 hPa 0,0 l/m 5,7 km/h NW 312 0 min 1,3 UV-I 77 W/m 7,4 C 18,3 C 11,3 km/h
27.05.2020 17:48 18,6 C 48 % 1027,4 hPa 0,0 l/m 6,2 km/h NW 312 0 min 1,3 UV-I 84 W/m 7,4 C 18,6 C 11,3 km/h
27.05.2020 17:45 18,8 C 47 % 1027,4 hPa 0,0 l/m 8,0 km/h NW 312 0 min 1,3 UV-I 83 W/m 7,2 C 18,1 C 14,5 km/h
27.05.2020 17:42 19,1 C 47 % 1027,4 hPa 0,0 l/m 8,6 km/h N-NW 328 0 min 1,2 UV-I 76 W/m 7,5 C 18,2 C 12,9 km/h
27.05.2020 17:39 19,3 C 46 % 1027,5 hPa 0,0 l/m 9,2 km/h N-NW 329 0 min 1,3 UV-I 77 W/m 7,4 C 18,2 C 17,7 km/h
27.05.2020 17:36 19,4 C 44 % 1027,5 hPa 0,0 l/m 9,6 km/h N 355 0 min 1,5 UV-I 83 W/m 6,8 C 18,1 C 17,7 km/h
27.05.2020 17:33 19,6 C 44 % 1027,5 hPa 0,0 l/m 12,6 km/h N-NW 344 3 min 1,7 UV-I 506 W/m 7,0 C 17,4 C 20,9 km/h
27.05.2020 17:30 19,8 C 43 % 1027,6 hPa 0,0 l/m 14,1 km/h NW 324 0 min 1,7 UV-I 134 W/m 6,9 C 17,2 C 27,4 km/h
27.05.2020 17:27 19,9 C 42 % 1027,6 hPa 0,0 l/m 15,2 km/h NW 325 3 min 2,0 UV-I 396 W/m 6,6 C 17,1 C 22,5 km/h
27.05.2020 17:24 19,9 C 43 % 1027,7 hPa 0,0 l/m 14,2 km/h N 360 3 min 2,2 UV-I 527 W/m 6,9 C 17,3 C 29,0 km/h
27.05.2020 17:21 19,8 C 46 % 1027,6 hPa 0,0 l/m 8,9 km/h N 355 3 min 2,4 UV-I 506 W/m 7,8 C 18,8 C 16,1 km/h
27.05.2020 17:18 19,9 C 44 % 1027,7 hPa 0,0 l/m 8,9 km/h W-NW 297 3 min 2,5 UV-I 513 W/m 7,3 C 18,9 C 19,3 km/h
27.05.2020 17:15 20,0 C 42 % 1027,7 hPa 0,0 l/m 10,2 km/h NW 310 3 min 2,6 UV-I 529 W/m 6,7 C 18,6 C 20,9 km/h
27.05.2020 17:12 20,1 C 44 % 1027,7 hPa 0,0 l/m 10,1 km/h N-NW 331 3 min 2,6 UV-I 531 W/m 7,5 C 18,7 C 17,7 km/h
27.05.2020 17:09 20,1 C 43 % 1027,7 hPa 0,0 l/m 10,0 km/h NW 325 3 min 2,6 UV-I 548 W/m 7,1 C 18,8 C 16,1 km/h
27.05.2020 17:06 20,3 C 42 % 1027,8 hPa 0,0 l/m 10,2 km/h NW 325 3 min 2,7 UV-I 577 W/m 7,0 C 18,9 C 16,1 km/h
27.05.2020 17:03 20,4 C 41 % 1027,8 hPa 0,0 l/m 13,5 km/h N-NW 338 3 min 2,2 UV-I 631 W/m 6,7 C 18,1 C 22,5 km/h
27.05.2020 17:00 20,4 C 42 % 1027,8 hPa 0,0 l/m 15,3 km/h N-NW 332 3 min 2,9 UV-I 638 W/m 7,1 C 17,7 C 22,5 km/h
27.05.2020 16:57 20,3 C 45 % 1027,8 hPa 0,0 l/m 9,3 km/h N-NW 346 3 min 3,1 UV-I 649 W/m 8,0 C 19,2 C 19,3 km/h
27.05.2020 16:54 20,3 C 43 % 1027,9 hPa 0,0 l/m 10,5 km/h N-NW 333 3 min 3,1 UV-I 636 W/m 7,3 C 18,8 C 17,7 km/h
27.05.2020 16:51 20,7 C 42 % 1028,0 hPa 0,0 l/m 11,4 km/h NW 306 3 min 3,1 UV-I 598 W/m 7,3 C 19,0 C 24,1 km/h
27.05.2020 16:48 20,6 C 47 % 1027,9 hPa 0,0 l/m 8,1 km/h NW 325 3 min 3,1 UV-I 601 W/m 8,9 C 19,9 C 12,9 km/h
27.05.2020 16:45 20,4 C 47 % 1027,9 hPa 0,0 l/m 7,8 km/h N 5 3 min 3,4 UV-I 636 W/m 8,7 C 19,8 C 14,5 km/h
27.05.2020 16:42 20,3 C 41 % 1027,9 hPa 0,0 l/m 9,5 km/h N-NW 340 3 min 3,5 UV-I 659 W/m 6,6 C 19,1 C 17,7 km/h
27.05.2020 16:39 20,4 C 42 % 1028,0 hPa 0,0 l/m 9,4 km/h W 279 3 min 3,5 UV-I 647 W/m 7,1 C 19,3 C 16,1 km/h
27.05.2020 16:36 20,4 C 45 % 1028,0 hPa 0,0 l/m 11,3 km/h N-NW 343 3 min 3,6 UV-I 647 W/m 8,1 C 18,7 C 17,7 km/h
27.05.2020 16:33 20,2 C 43 % 1028,0 hPa 0,0 l/m 13,8 km/h N 350 3 min 3,7 UV-I 654 W/m 7,2 C 17,8 C 27,4 km/h
27.05.2020 16:30 20,0 C 46 % 1028,1 hPa 0,0 l/m 13,8 km/h N-NW 338 3 min 3,7 UV-I 659 W/m 8,0 C 17,5 C 27,4 km/h
27.05.2020 16:27 19,7 C 45 % 1028,0 hPa 0,0 l/m 13,4 km/h N-NW 345 3 min 3,8 UV-I 680 W/m 7,4 C 17,3 C 20,9 km/h
27.05.2020 16:24 19,5 C 43 % 1028,1 hPa 0,0 l/m 12,1 km/h N-NW 338 3 min 3,9 UV-I 689 W/m 6,6 C 17,4 C 22,5 km/h
27.05.2020 16:21 19,6 C 43 % 1028,1 hPa 0,0 l/m 11,3 km/h NW 306 3 min 3,9 UV-I 703 W/m 6,7 C 17,8 C 19,3 km/h
27.05.2020 16:18 19,8 C 44 % 1028,1 hPa 0,0 l/m 9,7 km/h NW 319 0 min 2,5 UV-I 113 W/m 7,2 C 18,5 C 17,7 km/h
27.05.2020 16:15 20,0 C 45 % 1028,1 hPa 0,0 l/m 7,8 km/h N-NW 331 0 min 2,6 UV-I 121 W/m 7,7 C 19,4 C 11,3 km/h
27.05.2020 16:12 20,1 C 42 % 1028,2 hPa 0,0 l/m 11,8 km/h W-NW 294 3 min 4,3 UV-I 729 W/m 6,8 C 18,2 C 16,1 km/h
27.05.2020 16:09 19,9 C 42 % 1028,2 hPa 0,0 l/m 9,0 km/h NW 321 3 min 4,3 UV-I 737 W/m 6,6 C 18,9 C 14,5 km/h
27.05.2020 16:06 19,8 C 43 % 1028,2 hPa 0,0 l/m 12,6 km/h N 9 3 min 4,3 UV-I 735 W/m 6,9 C 17,6 C 19,3 km/h
27.05.2020 16:03 19,9 C 40 % 1028,3 hPa 0,0 l/m 13,7 km/h NW 321 0 min 4,3 UV-I 156 W/m 5,9 C 17,5 C 24,1 km/h
27.05.2020 16:00 20,2 C 44 % 1028,3 hPa 0,0 l/m 13,6 km/h N-NW 327 3 min 3,4 UV-I 773 W/m 7,6 C 17,8 C 29,0 km/h
27.05.2020 15:57 20,4 C 45 % 1028,4 hPa 0,0 l/m 13,1 km/h N-NW 327 3 min 3,0 UV-I 773 W/m 8,1 C 18,2 C 22,5 km/h
27.05.2020 15:54 20,6 C 45 % 1028,3 hPa 0,0 l/m 9,8 km/h N-NW 339 3 min 4,8 UV-I 833 W/m 8,2 C 19,4 C 16,1 km/h
27.05.2020 15:51 20,4 C 53 % 1028,4 hPa 0,0 l/m 7,8 km/h NW 323 3 min 4,4 UV-I 840 W/m 10,5 C 19,8 C 20,9 km/h
27.05.2020 15:48 20,3 C 47 % 1028,4 hPa 0,0 l/m 11,8 km/h N-NW 344 3 min 4,9 UV-I 805 W/m 8,6 C 18,4 C 20,9 km/h
27.05.2020 15:45 20,2 C 49 % 1028,4 hPa 0,0 l/m 8,8 km/h N 355 3 min 4,9 UV-I 816 W/m 9,1 C 19,3 C 14,5 km/h
27.05.2020 15:42 20,3 C 46 % 1028,5 hPa 0,0 l/m 11,6 km/h N-NW 337 3 min 5,2 UV-I 846 W/m 8,3 C 18,5 C 19,3 km/h
27.05.2020 15:39 20,4 C 45 % 1028,5 hPa 0,0 l/m 15,9 km/h N 5 0 min 5,2 UV-I 221 W/m 8,1 C 17,5 C 24,1 km/h
27.05.2020 15:36 20,3 C 51 % 1028,5 hPa 0,0 l/m 12,1 km/h NW 320 3 min 5,3 UV-I 867 W/m 9,8 C 18,3 C 22,5 km/h
27.05.2020 15:33 20,3 C 44 % 1028,6 hPa 0,0 l/m 16,2 km/h N 355 3 min 5,5 UV-I 847 W/m 7,6 C 17,3 C 24,1 km/h
27.05.2020 15:30 20,2 C 47 % 1028,6 hPa 0,0 l/m 12,5 km/h N-NW 334 3 min 5,7 UV-I 895 W/m 8,5 C 18,1 C 20,9 km/h
27.05.2020 15:27 20,2 C 49 % 1028,6 hPa 0,0 l/m 10,7 km/h N-NW 346 0 min 5,6 UV-I 338 W/m 9,1 C 18,6 C 22,5 km/h
27.05.2020 15:24 20,1 C 48 % 1028,6 hPa 0,0 l/m 11,3 km/h N-NO 13 3 min 5,7 UV-I 972 W/m 8,7 C 18,3 C 17,7 km/h
27.05.2020 15:21 19,9 C 48 % 1028,7 hPa 0,0 l/m 11,4 km/h NW 321 3 min 5,9 UV-I 940 W/m 8,6 C 18,1 C 17,7 km/h
27.05.2020 15:18 19,9 C 46 % 1028,6 hPa 0,0 l/m 9,5 km/h NW 314 3 min 6,0 UV-I 944 W/m 7,9 C 18,7 C 19,3 km/h
27.05.2020 15:15 19,8 C 50 % 1028,8 hPa 0,0 l/m 12,3 km/h NW 321 3 min 6,2 UV-I 919 W/m 9,1 C 17,7 C 20,9 km/h
27.05.2020 15:12 19,6 C 51 % 1028,7 hPa 0,0 l/m 10,1 km/h N-NW 330 3 min 5,9 UV-I 898 W/m 9,2 C 18,2 C 17,7 km/h
27.05.2020 15:09 19,5 C 50 % 1028,8 hPa 0,0 l/m 10,3 km/h N-NW 345 0 min 5,8 UV-I 387 W/m 8,8 C 18,0 C 22,5 km/h
27.05.2020 15:06 19,5 C 50 % 1028,9 hPa 0,0 l/m 13,3 km/h N-NW 336 0 min 4,5 UV-I 292 W/m 8,8 C 17,1 C 20,9 km/h
27.05.2020 15:03 19,7 C 51 % 1028,8 hPa 0,0 l/m 9,1 km/h N-NW 344 0 min 2,9 UV-I 241 W/m 9,3 C 18,6 C 16,1 km/h
27.05.2020 15:00 19,6 C 53 % 1028,9 hPa 0,0 l/m 8,5 km/h N-NW 348 3 min 3,4 UV-I 902 W/m 9,8 C 18,7 C 14,5 km/h
27.05.2020 14:57 19,3 C 49 % 1028,9 hPa 0,0 l/m 9,9 km/h W-NW 291 3 min 6,4 UV-I 981 W/m 8,3 C 17,9 C 20,9 km/h
27.05.2020 14:54 19,1 C 53 % 1028,9 hPa 0,0 l/m 5,7 km/h W-NW 298 3 min 6,5 UV-I 905 W/m 9,3 C 19,1 C 12,9 km/h
27.05.2020 14:51 19,1 C 50 % 1029,0 hPa 0,0 l/m 9,5 km/h NW 306 3 min 6,3 UV-I 900 W/m 8,4 C 17,8 C 17,7 km/h
27.05.2020 14:48 19,1 C 52 % 1029,1 hPa 0,0 l/m 7,0 km/h N-NW 339 3 min 6,5 UV-I 921 W/m 9,0 C 18,8 C 17,7 km/h
27.05.2020 14:45 19,4 C 50 % 1029,1 hPa 0,0 l/m 8,9 km/h N-NW 329 0 min 3,6 UV-I 223 W/m 8,7 C 18,4 C 19,3 km/h
27.05.2020 14:42 19,6 C 50 % 1029,1 hPa 0,0 l/m 17,1 km/h N-NW 338 0 min 2,9 UV-I 144 W/m 8,9 C 16,3 C 24,1 km/h
27.05.2020 14:39 19,5 C 51 % 1029,1 hPa 0,0 l/m 14,7 km/h N-NW 347 3 min 6,3 UV-I 953 W/m 9,1 C 16,7 C 22,5 km/h
27.05.2020 14:36 19,4 C 49 % 1029,1 hPa 0,0 l/m 11,0 km/h NW 309 3 min 3,9 UV-I 1018 W/m 8,4 C 17,6 C 16,1 km/h
27.05.2020 14:33 19,3 C 53 % 1029,1 hPa 0,0 l/m 10,9 km/h NW 326 3 min 4,9 UV-I 993 W/m 9,5 C 17,6 C 24,1 km/h
27.05.2020 14:30 19,1 C 56 % 1029,2 hPa 0,0 l/m 7,3 km/h N-NW 340 3 min 7,2 UV-I 984 W/m 10,1 C 18,7 C 12,9 km/h
27.05.2020 14:27 18,8 C 52 % 1029,3 hPa 0,0 l/m 11,5 km/h N 350 3 min 7,3 UV-I 972 W/m 8,7 C 16,8 C 19,3 km/h
27.05.2020 14:24 18,8 C 54 % 1029,3 hPa 0,0 l/m 14,1 km/h N-NW 333 3 min 7,2 UV-I 998 W/m 9,3 C 16,0 C 24,1 km/h
27.05.2020 14:21 19,0 C 52 % 1029,3 hPa 0,0 l/m 8,9 km/h N-NW 332 0 min 3,8 UV-I 248 W/m 8,9 C 17,9 C 16,1 km/h
27.05.2020 14:18 19,2 C 49 % 1029,3 hPa 0,0 l/m 14,0 km/h NW 326 0 min 3,9 UV-I 301 W/m 8,2 C 16,5 C 22,5 km/h
27.05.2020 14:15 19,5 C 51 % 1029,4 hPa 0,0 l/m 15,2 km/h NW 317 0 min 3,8 UV-I 301 W/m 9,1 C 16,6 C 27,4 km/h
27.05.2020 14:12 19,6 C 55 % 1029,4 hPa 0,0 l/m 10,8 km/h NW 307 3 min 5,5 UV-I 1060 W/m 10,3 C 17,9 C 17,7 km/h
27.05.2020 14:09 19,6 C 50 % 1029,4 hPa 0,0 l/m 12,3 km/h W-NW 302 3 min 7,4 UV-I 1046 W/m 8,9 C 17,5 C 22,5 km/h
27.05.2020 14:06 19,6 C 52 % 1029,6 hPa 0,0 l/m 14,3 km/h NW 313 3 min 7,5 UV-I 983 W/m 9,5 C 16,9 C 33,8 km/h
27.05.2020 14:03 19,3 C 50 % 1029,5 hPa 0,0 l/m 8,4 km/h N 350 3 min 7,6 UV-I 963 W/m 8,6 C 18,5 C 19,3 km/h
27.05.2020 14:00 19,2 C 54 % 1029,5 hPa 0,0 l/m 12,4 km/h N-NW 341 3 min 7,6 UV-I 958 W/m 9,7 C 17,0 C 22,5 km/h
27.05.2020 13:57 19,1 C 53 % 1029,7 hPa 0,0 l/m 16,3 km/h N 360 3 min 7,6 UV-I 1007 W/m 9,3 C 15,8 C 25,7 km/h
27.05.2020 13:54 18,9 C 54 % 1029,6 hPa 0,0 l/m 10,7 km/h NW 312 3 min 7,7 UV-I 990 W/m 9,4 C 17,2 C 19,3 km/h
27.05.2020 13:51 18,6 C 58 % 1029,6 hPa 0,0 l/m 11,5 km/h N 355 3 min 7,7 UV-I 969 W/m 10,2 C 16,6 C 19,3 km/h
27.05.2020 13:48 18,3 C 55 % 1029,7 hPa 0,0 l/m 13,1 km/h NW 323 3 min 7,7 UV-I 947 W/m 9,1 C 15,7 C 20,9 km/h
27.05.2020 13:45 18,3 C 58 % 1029,9 hPa 0,0 l/m 13,1 km/h NW 311 0 min 7,4 UV-I 186 W/m 9,9 C 15,7 C 22,5 km/h
27.05.2020 13:42 18,2 C 55 % 1029,8 hPa 0,0 l/m 9,6 km/h W-NW 289 3 min 4,0 UV-I 946 W/m 9,0 C 16,8 C 19,3 km/h
27.05.2020 13:39 17,9 C 57 % 1029,9 hPa 0,0 l/m 16,4 km/h N 355 3 min 7,8 UV-I 970 W/m 9,3 C 14,3 C 25,7 km/h
27.05.2020 13:36 17,4 C 64 % 1029,9 hPa 0,0 l/m 5,8 km/h NW 316 3 min 7,8 UV-I 949 W/m 10,5 C 17,4 C 14,5 km/h
27.05.2020 13:33 17,0 C 65 % 1030,0 hPa 0,0 l/m 10,1 km/h N-NW 337 3 min 7,7 UV-I 972 W/m 10,4 C 15,3 C 19,3 km/h
27.05.2020 13:30 17,0 C 61 % 1030,1 hPa 0,0 l/m 9,2 km/h N-NW 333 0 min 4,5 UV-I 239 W/m 9,4 C 15,7 C 17,7 km/h
27.05.2020 13:27 17,1 C 61 % 1030,1 hPa 0,0 l/m 7,1 km/h NW 323 0 min 6,6 UV-I 213 W/m 9,5 C 16,7 C 12,9 km/h
27.05.2020 13:24 17,3 C 62 % 1030,1 hPa 0,0 l/m 6,3 km/h N-NW 345 0 min 3,1 UV-I 188 W/m 9,9 C 17,3 C 11,3 km/h
27.05.2020 13:21 17,4 C 59 % 1030,1 hPa 0,0 l/m 10,0 km/h N-NW 347 0 min 2,7 UV-I 163 W/m 9,3 C 15,8 C 16,1 km/h
_ Min-Zeit 04:18 16:03 17:42 - 18:18 - - - - - 16:03 08:39 18:18
Minimum _ 6,6 C 40 % 1027,4 hPa - 0,0 km/h - - - - - 5,9 C 6,2 C 0,0 km/h
_ Max-Zeit 16:51 07:15 07:18 20:21 14:42 - - 05:18 12:21 12:06 11:21 16:48 14:06
Maximum _ 20,7 C 99 % 1032,0 hPa 0,4 l/m 17,1 km/h
N-NW
- - 3 min 8,1 UV-I 1120 W/m 11,5 C 19,9 C 33,8 km/h
N
Durchschnitt _ 11,9 C 83 % 1030,7 hPa #4,2 l/m 6,4 km/h N - #8:51 h 4,1 UV-I 517 W/m 8,6 C 11,1 C 11,4 km/h
Schulla EDV